DeKalb, Illinois
Current Conditions -  °F | °C
As of 7:15 PM on Thursday 27 Nov 2014 (Local Time) from KDKB Reporting Station
Clear Clear  
Wind Chill:   Ceiling: Unl
Heat Index: 12°   Visibility: 10mi
Dew Point:   Wind: 5mph
Humidity: 81%   Direction: 330°NNW
Pressure: 30.39"   Gusts: NA
Location:  41.93°N, 88.75°W
Report Text: KDKB 280115Z AUTO 33004KT 10SM CLR M11/M14 A3039 RMK AO2 T11111138
Loading
Personal Weather Stations






























Interactive Weather Map New forecast layout! Learn more

10-Day Weather Forecast

Advertisements
Track Severe Weather on mobile